createdAt,value
2018-08-17T00:01:05.703Z,0
2018-08-17T00:02:15.527Z,0
2018-08-17T00:03:25.602Z,0
2018-08-17T00:04:35.420Z,0
2018-08-17T00:05:45.483Z,0
2018-08-17T00:06:55.561Z,0
2018-08-17T00:08:05.378Z,0
2018-08-17T00:09:15.449Z,0
2018-08-17T00:10:24.791Z,0
2018-08-17T00:11:34.895Z,0
2018-08-17T00:12:44.957Z,0
2018-08-17T00:13:55.036Z,0
2018-08-17T00:15:05.227Z,0
2018-08-17T00:16:15.308Z,0
2018-08-17T00:17:25.123Z,0
2018-08-17T00:18:35.202Z,0
2018-08-17T00:19:44.750Z,0
2018-08-17T00:20:54.809Z,0
2018-08-17T00:22:04.937Z,0
2018-08-17T00:23:14.756Z,0
2018-08-17T00:24:24.829Z,0
2018-08-17T00:25:34.904Z,0
2018-08-17T00:26:44.975Z,0
2018-08-17T00:27:55.088Z,0
2018-08-17T00:29:04.894Z,0
2018-08-17T00:30:14.972Z,0
2018-08-17T00:31:25.055Z,0
2018-08-17T00:32:35.119Z,0
2018-08-17T00:33:45.235Z,0
2018-08-17T00:34:55.322Z,0
2018-08-17T00:36:05.162Z,0
2018-08-17T00:37:14.981Z,0
2018-08-17T00:38:25.049Z,0
2018-08-17T00:39:35.183Z,0
2018-08-17T00:40:44.986Z,0
2018-08-17T00:41:55.066Z,0
2018-08-17T00:43:05.181Z,0
2018-08-17T00:44:15.012Z,0
2018-08-17T00:45:25.131Z,0
2018-08-17T00:46:34.673Z,0
2018-08-17T00:47:44.760Z,0
2018-08-17T00:48:54.837Z,0
2018-08-17T00:50:04.919Z,0
2018-08-17T00:51:14.991Z,0
2018-08-17T00:52:25.084Z,0
2018-08-17T00:53:34.900Z,0
2018-08-17T00:54:44.983Z,0
2018-08-17T00:55:55.066Z,0
2018-08-17T00:57:04.886Z,0
2018-08-17T00:58:14.962Z,0
2018-08-17T00:59:25.025Z,0
2018-08-17T01:00:34.844Z,0
2018-08-17T01:01:44.931Z,0
2018-08-17T01:02:54.734Z,0
2018-08-17T01:04:04.808Z,0
2018-08-17T01:05:14.623Z,0
2018-08-17T01:06:24.689Z,0
2018-08-17T01:07:34.511Z,0
2018-08-17T01:08:44.590Z,0
2018-08-17T01:09:54.667Z,0
2018-08-17T01:11:04.480Z,0
2018-08-17T01:12:14.550Z,0
2018-08-17T01:13:24.619Z,0
2018-08-17T01:14:34.682Z,0
2018-08-17T01:15:44.495Z,0
2018-08-17T01:16:54.298Z,0
2018-08-17T01:18:04.371Z,0
2018-08-17T01:19:14.461Z,0
2018-08-17T01:20:24.529Z,0
2018-08-17T01:21:34.598Z,0
2018-08-17T01:22:44.683Z,0
2018-08-17T01:23:54.759Z,0
2018-08-17T01:25:04.854Z,0
2018-08-17T01:26:14.718Z,0
2018-08-17T01:27:24.780Z,0
2018-08-17T01:28:34.855Z,0
2018-08-17T01:29:44.951Z,0
2018-08-17T01:30:55.015Z,0
2018-08-17T01:32:05.203Z,0
2018-08-17T01:33:15.004Z,0
2018-08-17T01:34:24.817Z,0
2018-08-17T01:35:34.899Z,0
2018-08-17T01:36:44.972Z,0
2018-08-17T01:37:54.781Z,0
2018-08-17T01:39:04.613Z,0
2018-08-17T01:40:14.447Z,0
2018-08-17T01:41:24.531Z,0
2018-08-17T01:42:34.608Z,0
2018-08-17T01:43:44.734Z,0
2018-08-17T01:44:54.810Z,0
2018-08-17T01:46:04.866Z,0
2018-08-17T01:47:14.678Z,0
2018-08-17T01:48:24.747Z,0
2018-08-17T01:49:34.873Z,0
2018-08-17T01:50:44.933Z,0
2018-08-17T01:51:55.005Z,0
2018-08-17T01:53:04.927Z,0
2018-08-17T01:54:14.728Z,0
2018-08-17T01:55:24.804Z,0
2018-08-17T01:56:34.877Z,0
2018-08-17T01:57:44.943Z,0
2018-08-17T01:58:55.005Z,0
2018-08-17T02:00:05.171Z,0
2018-08-17T02:01:15.016Z,0
2018-08-17T02:02:25.080Z,0
2018-08-17T02:03:34.899Z,0
2018-08-17T02:04:44.978Z,0
2018-08-17T02:05:55.075Z,0
2018-08-17T02:07:05.456Z,0
2018-08-17T02:08:15.264Z,0
2018-08-17T02:09:25.352Z,0
2018-08-17T02:10:35.169Z,0
2018-08-17T02:11:45.248Z,0
2018-08-17T02:12:55.411Z,0
2018-08-17T02:14:05.689Z,0
2018-08-17T02:15:15.751Z,0
2018-08-17T02:16:25.836Z,0
2018-08-17T02:17:35.927Z,0
2018-08-17T02:18:46.014Z,0
2018-08-17T02:19:55.818Z,0
2018-08-17T02:21:05.917Z,0
2018-08-17T02:22:15.998Z,0
2018-08-17T02:23:25.808Z,0
2018-08-17T02:24:36.270Z,0
2018-08-17T02:25:46.078Z,0
2018-08-17T02:26:55.885Z,0
2018-08-17T02:28:05.963Z,0
2018-08-17T02:29:15.500Z,0
2018-08-17T02:30:25.633Z,0
2018-08-17T02:31:35.728Z,0
2018-08-17T02:32:45.811Z,0
2018-08-17T02:33:55.619Z,0
2018-08-17T02:35:05.697Z,0
2018-08-17T02:36:15.786Z,0
2018-08-17T02:37:25.885Z,0
2018-08-17T02:38:35.697Z,0
2018-08-17T02:39:45.781Z,0
2018-08-17T02:40:55.868Z,0
2018-08-17T02:42:05.938Z,0
2018-08-17T02:43:16.048Z,0
2018-08-17T02:44:26.136Z,0
2018-08-17T02:45:36.232Z,0
2018-08-17T02:46:46.295Z,0
2018-08-17T02:47:56.156Z,0
2018-08-17T02:49:05.983Z,0
2018-08-17T02:50:16.055Z,0
2018-08-17T02:51:26.145Z,0
2018-08-17T02:52:36.231Z,0
2018-08-17T02:53:46.054Z,0
2018-08-17T02:54:56.132Z,0
2018-08-17T02:56:06.203Z,0
2018-08-17T02:57:16.029Z,0
2018-08-17T02:58:26.122Z,0
2018-08-17T02:59:36.548Z,0
2018-08-17T03:00:46.529Z,0
2018-08-17T03:01:56.103Z,0
2018-08-17T03:35:04.280Z,16
2018-08-17T03:36:14.076Z,20
2018-08-17T03:37:24.367Z,24
2018-08-17T03:38:34.174Z,24
2018-08-17T03:39:44.244Z,28
2018-08-17T03:40:53.802Z,32
2018-08-17T03:42:03.626Z,40
2018-08-17T03:43:13.419Z,44
2018-08-17T03:44:23.496Z,52
2018-08-17T03:45:33.571Z,60
2018-08-17T03:46:43.392Z,64
2018-08-17T03:47:53.462Z,76
2018-08-17T03:49:03.540Z,84
2018-08-17T03:50:13.625Z,92
2018-08-17T03:51:23.710Z,108
2018-08-17T03:52:33.843Z,120
2018-08-17T03:53:43.654Z,136
2018-08-17T03:54:53.745Z,148
2018-08-17T03:56:03.831Z,164
2018-08-17T03:57:13.926Z,180
2018-08-17T03:58:23.988Z,200
2018-08-17T03:59:33.807Z,224
2018-08-17T04:00:43.893Z,240
2018-08-17T04:01:53.947Z,264
2018-08-17T04:03:04.027Z,288
2018-08-17T04:04:13.890Z,312
2018-08-17T04:05:23.951Z,340
2018-08-17T04:06:33.767Z,368
2018-08-17T04:07:43.846Z,396
2018-08-17T04:08:53.912Z,424
2018-08-17T04:10:03.774Z,456
2018-08-17T04:11:13.861Z,488
2018-08-17T04:12:23.935Z,520
2018-08-17T04:13:34.010Z,552
2018-08-17T04:14:44.100Z,584
2018-08-17T04:15:53.915Z,620
2018-08-17T04:17:04.004Z,652
2018-08-17T04:18:14.090Z,692
2018-08-17T04:19:23.900Z,724
2018-08-17T04:20:33.722Z,768
2018-08-17T04:21:43.816Z,812
2018-08-17T04:22:53.894Z,856
2018-08-17T04:24:04.063Z,1032
2018-08-17T04:25:14.161Z,1452
2018-08-17T04:26:23.952Z,1492
2018-08-17T04:27:34.028Z,1148
2018-08-17T04:28:43.831Z,1272
2018-08-17T04:29:53.901Z,1284
2018-08-17T04:31:04.019Z,1224
2018-08-17T04:32:13.830Z,1380
2018-08-17T04:33:23.903Z,1460
2018-08-17T04:34:33.982Z,1672
2018-08-17T04:35:44.054Z,2312
2018-08-17T04:36:54.132Z,2092
2018-08-17T04:38:04.200Z,1904
2018-08-17T04:39:14.273Z,1812
2018-08-17T04:40:24.339Z,2788
2018-08-17T04:41:34.416Z,3740
2018-08-17T04:42:44.496Z,4276
2018-08-17T04:43:54.925Z,3652
2018-08-17T04:45:04.735Z,2368
2018-08-17T04:46:14.818Z,2484
2018-08-17T04:47:24.873Z,3832
2018-08-17T04:48:34.947Z,2940
2018-08-17T04:49:45.036Z,3152
2018-08-17T04:50:55.128Z,2908
2018-08-17T04:52:05.000Z,2080
2018-08-17T04:53:15.085Z,2240
2018-08-17T04:54:25.137Z,3356
2018-08-17T04:55:34.673Z,4036
2018-08-17T04:56:44.750Z,4736
2018-08-17T04:57:54.818Z,6152
2018-08-17T04:59:04.899Z,6276
2018-08-17T05:00:14.721Z,6440
2018-08-17T05:01:24.548Z,6544
2018-08-17T05:02:34.631Z,6568
2018-08-17T05:03:44.444Z,6624
2018-08-17T05:04:53.993Z,6744
2018-08-17T05:06:03.829Z,6928
2018-08-17T05:07:13.387Z,7036
2018-08-17T05:08:23.465Z,7112
2018-08-17T05:09:33.012Z,7144
2018-08-17T05:10:42.838Z,7200
2018-08-17T05:11:52.933Z,7260
2018-08-17T05:13:03.023Z,7412
2018-08-17T05:14:13.168Z,7600
2018-08-17T05:15:23.007Z,7536
2018-08-17T05:16:32.824Z,7516
2018-08-17T05:17:42.376Z,7648
2018-08-17T05:18:52.453Z,7736
2018-08-17T05:20:02.730Z,7704
2018-08-17T05:21:12.802Z,7796
2018-08-17T05:22:22.901Z,7960
2018-08-17T05:23:32.842Z,7944
2018-08-17T05:24:42.748Z,7888
2018-08-17T05:25:52.558Z,8012
2018-08-17T05:27:02.367Z,8092
2018-08-17T05:28:12.443Z,8060
2018-08-17T05:29:22.539Z,8108
2018-08-17T05:30:32.622Z,8112
2018-08-17T05:31:42.451Z,8132
2018-08-17T05:32:52.281Z,8208
2018-08-17T05:34:02.362Z,8136
2018-08-17T05:35:12.445Z,8128
2018-08-17T05:36:22.343Z,8052
2018-08-17T05:37:32.423Z,7892
2018-08-17T05:38:42.505Z,7932
2018-08-17T05:39:52.587Z,7868
2018-08-17T05:41:03.309Z,7808
2018-08-17T05:42:13.383Z,7784
2018-08-17T05:43:22.932Z,7784
2018-08-17T05:44:32.756Z,7800
2018-08-17T05:45:42.840Z,7760
2018-08-17T05:46:52.925Z,7732
2018-08-17T05:48:03.016Z,7736
2018-08-17T05:49:12.838Z,7700
2018-08-17T05:50:22.915Z,7680
2018-08-17T05:51:33.018Z,7596
2018-08-17T05:52:43.105Z,6392
2018-08-17T05:53:53.196Z,4084
2018-08-17T05:55:03.268Z,3120
2018-08-17T05:56:13.338Z,3092
2018-08-17T05:57:23.410Z,3340
2018-08-17T05:58:33.512Z,3328
2018-08-17T05:59:43.593Z,3148
2018-08-17T06:00:53.670Z,3132
2018-08-17T06:02:03.749Z,3140
2018-08-17T06:03:13.568Z,3156
2018-08-17T06:04:23.361Z,3232
2018-08-17T06:05:33.432Z,4016
2018-08-17T06:06:43.509Z,3692
2018-08-17T06:07:53.606Z,3308
2018-08-17T06:09:03.696Z,3236
2018-08-17T06:10:13.771Z,3220
2018-08-17T06:11:24.992Z,3228
2018-08-17T06:12:35.432Z,3236
2018-08-17T06:13:45.255Z,3244
2018-08-17T06:14:55.332Z,3252
2018-08-17T06:16:05.406Z,3264
2018-08-17T06:17:15.230Z,3268
2018-08-17T06:18:25.066Z,3284
2018-08-17T06:19:35.156Z,3292
2018-08-17T06:20:45.251Z,3300
2018-08-17T06:21:55.347Z,3308
2018-08-17T06:23:05.424Z,3320
2018-08-17T06:24:15.522Z,3332
2018-08-17T06:25:25.638Z,3344
2018-08-17T06:26:35.470Z,3356
2018-08-17T06:27:45.522Z,3368
2018-08-17T06:28:55.663Z,3380
2018-08-17T06:30:05.753Z,3388
2018-08-17T06:31:15.821Z,3404
2018-08-17T06:32:25.918Z,3472
2018-08-17T06:33:36.002Z,3580
2018-08-17T06:34:46.093Z,3688
2018-08-17T06:35:56.187Z,3696
2018-08-17T06:37:06.626Z,3708
2018-08-17T06:38:16.843Z,3692
2018-08-17T06:39:26.414Z,3596
2018-08-17T06:40:36.228Z,3516
2018-08-17T06:41:46.317Z,3496
2018-08-17T06:42:56.440Z,3496
2018-08-17T06:44:06.262Z,3496
2018-08-17T06:45:16.346Z,3504
2018-08-17T06:46:26.423Z,3528
2018-08-17T06:47:36.509Z,3544
2018-08-17T06:48:46.591Z,3560
2018-08-17T06:49:56.668Z,3568
2018-08-17T06:51:07.166Z,3572
2018-08-17T06:52:17.550Z,3588
2018-08-17T06:53:27.637Z,3596
2018-08-17T06:54:37.722Z,3612
2018-08-17T06:55:47.279Z,3636
2018-08-17T06:56:57.124Z,3652
2018-08-17T06:58:07.075Z,3660
2018-08-17T06:59:17.154Z,3684
2018-08-17T07:00:27.247Z,3704
2018-08-17T07:01:37.339Z,3716
2018-08-17T07:02:47.929Z,3728
2018-08-17T07:03:58.020Z,3756
2018-08-17T07:05:08.110Z,3772
2018-08-17T07:06:17.652Z,3788
2018-08-17T07:07:27.743Z,3796
2018-08-17T07:08:37.864Z,3816
2018-08-17T07:09:47.771Z,3836
2018-08-17T07:10:57.344Z,3860
2018-08-17T07:12:07.592Z,3872
2018-08-17T07:13:17.684Z,3880
2018-08-17T07:14:27.511Z,3888
2018-08-17T07:15:37.622Z,3904
2018-08-17T07:16:48.213Z,3912
2018-08-17T07:17:58.298Z,3920
2018-08-17T07:19:08.376Z,3936
2018-08-17T07:20:18.477Z,3944
2018-08-17T07:21:28.489Z,3960
2018-08-17T07:22:38.747Z,3972
2018-08-17T07:23:48.843Z,3988
2018-08-17T07:24:58.932Z,3996
2018-08-17T07:26:09.027Z,4000
2018-08-17T07:27:19.154Z,4016
2018-08-17T07:28:28.985Z,4024
2018-08-17T07:29:38.803Z,4040
2018-08-17T07:30:48.905Z,4044
2018-08-17T07:31:58.984Z,4056
2018-08-17T07:33:08.808Z,4072
2018-08-17T07:34:18.617Z,4088
2018-08-17T07:35:28.739Z,4104
2018-08-17T07:36:38.893Z,4108
2018-08-17T07:37:48.716Z,4124
2018-08-17T07:38:58.842Z,4136
2018-08-17T07:40:08.947Z,4140
2018-08-17T07:41:19.039Z,4160
2018-08-17T07:42:29.120Z,4164
2018-08-17T07:43:39.213Z,4172
2018-08-17T07:44:49.310Z,4176
2018-08-17T07:45:59.383Z,4192
2018-08-17T07:47:09.495Z,4208
2018-08-17T07:48:20.543Z,4224
2018-08-17T07:49:30.903Z,4236
2018-08-17T07:50:41.032Z,4240
2018-08-17T07:51:51.140Z,4240
2018-08-17T07:53:01.236Z,4252
2018-08-17T07:54:11.051Z,4424
2018-08-17T07:55:21.134Z,4292
2018-08-17T07:56:31.248Z,4212
2018-08-17T07:57:41.072Z,4304
2018-08-17T07:58:51.166Z,4304
2018-08-17T08:00:01.447Z,4312
2018-08-17T08:01:11.554Z,4316
2018-08-17T08:02:21.376Z,4332
2018-08-17T08:03:31.466Z,4336
2018-08-17T08:04:41.593Z,4352
2018-08-17T08:05:51.397Z,4356
2018-08-17T08:07:01.228Z,4376
2018-08-17T08:08:11.315Z,4380
2018-08-17T08:09:21.412Z,4364
2018-08-17T08:10:31.482Z,4376
2018-08-17T08:11:41.591Z,4384
2018-08-17T08:12:51.662Z,4384
2018-08-17T08:14:01.557Z,4396
2018-08-17T08:15:11.394Z,4408
2018-08-17T08:16:21.566Z,4404
2018-08-17T08:17:31.655Z,4416
2018-08-17T08:18:41.745Z,4420
2018-08-17T08:19:51.839Z,4424
2018-08-17T08:21:01.913Z,4432
2018-08-17T08:22:11.999Z,4428
2018-08-17T08:23:21.830Z,4428
2018-08-17T08:24:31.946Z,4460
2018-08-17T08:25:42.041Z,4468
2018-08-17T08:26:52.134Z,4448
2018-08-17T08:28:01.984Z,4464
2018-08-17T08:29:12.169Z,4488
2018-08-17T08:30:22.022Z,4496
2018-08-17T08:31:32.147Z,4512
2018-08-17T08:32:41.925Z,4520
2018-08-17T08:33:52.015Z,4528
2018-08-17T08:35:02.128Z,4532
2018-08-17T08:36:12.234Z,4536
2018-08-17T08:37:22.080Z,4556
2018-08-17T08:38:32.176Z,4560
2018-08-17T08:39:42.322Z,4560
2018-08-17T08:40:52.431Z,4572
2018-08-17T08:42:02.555Z,4580
2018-08-17T08:43:12.390Z,4576
2018-08-17T08:44:22.488Z,4580
2018-08-17T08:45:32.913Z,4584
2018-08-17T08:46:42.858Z,4580
2018-08-17T08:47:52.967Z,4584
2018-08-17T08:49:03.078Z,4608
2018-08-17T08:50:12.926Z,4616
2018-08-17T08:51:23.045Z,4624
2018-08-17T08:52:32.906Z,4632
2018-08-17T08:53:42.774Z,4652
2018-08-17T08:54:52.915Z,4652
2018-08-17T08:56:03.279Z,4652
2018-08-17T08:57:13.171Z,4648
2018-08-17T08:58:23.283Z,4676
2018-08-17T08:59:33.399Z,4692
2018-08-17T09:00:43.595Z,4704
2018-08-17T09:01:54.131Z,4716
2018-08-17T09:03:04.248Z,4728
2018-08-17T09:04:14.368Z,4744
2018-08-17T09:05:24.724Z,4740
2018-08-17T09:06:34.572Z,4736
2018-08-17T09:07:44.705Z,4756
2018-08-17T09:08:54.561Z,4764
2018-08-17T09:10:04.715Z,4784
2018-08-17T09:11:14.801Z,4776
2018-08-17T09:12:24.940Z,4800
2018-08-17T09:13:35.134Z,4808
2018-08-17T09:14:45.028Z,4812
2018-08-17T09:15:55.134Z,4824
2018-08-17T09:17:05.352Z,4836
2018-08-17T09:18:15.477Z,4840
2018-08-17T09:19:25.582Z,4856
2018-08-17T09:20:35.849Z,4836
2018-08-17T09:21:46.101Z,4860
2018-08-17T09:22:56.036Z,4880
2018-08-17T09:24:06.152Z,4888
2018-08-17T09:25:16.270Z,4904
2018-08-17T09:26:26.134Z,4908
2018-08-17T09:27:36.245Z,4912
2018-08-17T09:28:46.080Z,4916
2018-08-17T09:29:55.923Z,4940
2018-08-17T09:31:06.082Z,4968
2018-08-17T09:32:15.925Z,4964
2018-08-17T09:33:26.037Z,4988
2018-08-17T09:34:36.157Z,4988
2018-08-17T09:35:46.255Z,5000
2018-08-17T09:36:56.372Z,4964
2018-08-17T09:38:06.490Z,5012
2018-08-17T09:39:16.348Z,5012
2018-08-17T09:40:25.927Z,5020
2018-08-17T09:41:36.160Z,5036
2018-08-17T09:42:46.344Z,5048
2018-08-17T09:43:56.455Z,5068
2018-08-17T09:45:06.338Z,5052
2018-08-17T09:46:16.448Z,5080
2018-08-17T09:47:26.614Z,5068
2018-08-17T09:48:36.778Z,5084
2018-08-17T09:49:46.632Z,5092
2018-08-17T09:50:56.786Z,5104
2018-08-17T09:52:06.417Z,5096
2018-08-17T09:53:16.581Z,5124
2018-08-17T09:54:26.700Z,5152
2018-08-17T09:55:36.567Z,5176
2018-08-17T09:56:46.745Z,5156
2018-08-17T09:57:56.931Z,5176
2018-08-17T09:59:07.040Z,5196
2018-08-17T10:00:17.146Z,5192
2018-08-17T10:01:27.257Z,5224
2018-08-17T10:02:37.358Z,5236
2018-08-17T10:03:47.737Z,5240
2018-08-17T10:04:57.953Z,5248
2018-08-17T10:06:08.573Z,5252
2018-08-17T10:07:18.427Z,5256
2018-08-17T10:08:28.551Z,5288
2018-08-17T10:09:53.293Z,5316
2018-08-17T10:11:03.397Z,5312
2018-08-17T10:12:13.532Z,5324
2018-08-17T10:13:23.650Z,5336
2018-08-17T10:14:33.771Z,5308
2018-08-17T10:15:43.645Z,5348
2018-08-17T10:16:53.969Z,5348
2018-08-17T10:18:04.095Z,5340
2018-08-17T10:19:14.222Z,5352
2018-08-17T10:20:24.360Z,5348
2018-08-17T10:21:36.978Z,5372
2018-08-17T10:22:48.020Z,5376
2018-08-17T10:23:58.146Z,5376
2018-08-17T10:25:08.159Z,5392
2018-08-17T10:26:18.296Z,5392
2018-08-17T10:27:28.159Z,5408
2018-08-17T10:28:38.291Z,5420
2018-08-17T10:29:48.193Z,5424
2018-08-17T10:30:58.316Z,5440
2018-08-17T10:32:08.158Z,5448
2018-08-17T10:33:18.277Z,5452
2018-08-17T10:34:28.393Z,5460
2018-08-17T10:35:38.579Z,5464
2018-08-17T10:36:48.701Z,5472
2018-08-17T10:37:58.802Z,5488
2018-08-17T10:39:08.987Z,5508
2018-08-17T10:40:19.106Z,5480
2018-08-17T10:41:28.991Z,5500
2018-08-17T10:42:38.844Z,5516
2018-08-17T10:43:48.955Z,5496
2018-08-17T10:44:59.041Z,5544
2018-08-17T10:46:09.119Z,5552
2018-08-17T10:47:19.211Z,5572
2018-08-17T10:48:29.045Z,5592
2018-08-17T10:49:39.128Z,5580
2018-08-17T10:50:49.210Z,5580
2018-08-17T10:51:59.316Z,5616
2018-08-17T10:53:09.430Z,5604
2018-08-17T10:54:19.770Z,5588
2018-08-17T10:55:29.788Z,5624
2018-08-17T10:56:39.824Z,5656
2018-08-17T10:57:49.684Z,5660
2018-08-17T10:58:59.831Z,5680
2018-08-17T11:00:09.408Z,5692
2018-08-17T11:01:19.521Z,5676
2018-08-17T11:02:29.628Z,5700
2018-08-17T11:03:39.733Z,5664
2018-08-17T11:04:49.578Z,5660
2018-08-17T11:05:59.689Z,5708
2018-08-17T11:07:09.527Z,5704
2018-08-17T11:08:19.425Z,5700
2018-08-17T11:09:29.559Z,5732
2018-08-17T11:10:39.671Z,5744
2018-08-17T11:11:49.781Z,5740
2018-08-17T11:12:59.891Z,5800
2018-08-17T11:14:10.117Z,5848
2018-08-17T11:15:19.974Z,5852
2018-08-17T11:16:30.170Z,5852
2018-08-17T11:17:40.279Z,5876
2018-08-17T11:18:50.453Z,5876
2018-08-17T11:20:00.838Z,5880
2018-08-17T11:21:11.253Z,5900
2018-08-17T11:22:21.369Z,5908
2018-08-17T11:23:31.469Z,5924
2018-08-17T11:24:41.633Z,5928
2018-08-17T11:25:51.563Z,5924
2018-08-17T11:27:01.403Z,5948
2018-08-17T11:28:11.303Z,5996
2018-08-17T11:29:21.460Z,6004
2018-08-17T11:30:31.570Z,6000
2018-08-17T11:31:41.680Z,5996
2018-08-17T11:32:51.790Z,6012
2018-08-17T11:34:01.902Z,6028
2018-08-17T11:35:12.068Z,6028
2018-08-17T11:36:21.909Z,6056
2018-08-17T11:37:32.015Z,6068
2018-08-17T11:38:42.130Z,6032
2018-08-17T11:39:52.703Z,6008
2018-08-17T11:41:02.919Z,6056
2018-08-17T11:42:12.505Z,6068
2018-08-17T11:43:22.372Z,6100
2018-08-17T11:44:32.536Z,6104
2018-08-17T11:45:42.400Z,6116
2018-08-17T11:46:52.249Z,6108
2018-08-17T11:48:02.355Z,6132
2018-08-17T11:49:12.212Z,6160
2018-08-17T11:50:22.074Z,6164
2018-08-17T11:51:32.198Z,6160
2018-08-17T11:52:42.328Z,6132
2018-08-17T11:53:52.408Z,6124
2018-08-17T11:55:02.376Z,6120
2018-08-17T11:56:12.477Z,6144
2018-08-17T11:57:22.632Z,6144
2018-08-17T11:58:32.754Z,6168
2018-08-17T11:59:42.619Z,6176
2018-08-17T12:00:52.730Z,6180
2018-08-17T12:02:03.358Z,6196
2018-08-17T12:03:13.582Z,6176
2018-08-17T12:04:23.742Z,6180
2018-08-17T12:05:33.582Z,6200
2018-08-17T12:06:43.440Z,6220
2018-08-17T12:07:53.617Z,6248
2018-08-17T12:09:03.725Z,6252
2018-08-17T12:10:13.842Z,6264
2018-08-17T12:11:23.948Z,6288
2018-08-17T12:12:34.055Z,6288
2018-08-17T12:13:44.184Z,6308
2018-08-17T12:14:54.026Z,6296
2018-08-17T12:16:04.142Z,6312
2018-08-17T12:17:13.723Z,6276
2018-08-17T12:18:23.853Z,6256
2018-08-17T12:19:34.004Z,6256
2018-08-17T12:20:43.857Z,6252
2018-08-17T12:21:53.992Z,6236
2018-08-17T12:23:04.136Z,6232
2018-08-17T12:24:14.505Z,6264
2018-08-17T12:25:24.731Z,6284
2018-08-17T12:26:34.847Z,6276
2018-08-17T12:27:44.961Z,6292
2018-08-17T12:28:55.066Z,6292
2018-08-17T12:30:05.232Z,6320
2018-08-17T12:31:15.148Z,6292
2018-08-17T12:32:25.307Z,6280
2018-08-17T12:33:35.415Z,6268
2018-08-17T12:34:45.535Z,6272
2018-08-17T12:35:55.724Z,6252
2018-08-17T12:37:05.839Z,6232
2018-08-17T12:38:16.641Z,6216
2018-08-17T12:39:26.768Z,6184
2018-08-17T12:40:36.612Z,6172
2018-08-17T12:41:46.739Z,6188
2018-08-17T12:42:56.922Z,6204
2018-08-17T12:44:07.035Z,6184
2018-08-17T12:45:17.173Z,6092
2018-08-17T12:46:27.520Z,6032
2018-08-17T12:47:37.078Z,6016
2018-08-17T12:48:47.485Z,5996
2018-08-17T12:49:57.611Z,5976
2018-08-17T12:51:08.189Z,5984
2018-08-17T12:52:18.198Z,5988
2018-08-17T12:53:28.083Z,6016
2018-08-17T12:54:37.983Z,6020
2018-08-17T12:55:48.093Z,6028
2018-08-17T12:56:57.662Z,5964
2018-08-17T12:58:08.064Z,5964
2018-08-17T12:59:18.409Z,5924
2018-08-17T13:00:28.523Z,5944
2018-08-17T13:01:38.611Z,5924
2018-08-17T13:02:48.714Z,5884
2018-08-17T13:03:58.878Z,5852
2018-08-17T13:05:08.746Z,5796
2018-08-17T13:06:18.893Z,5824
2018-08-17T13:07:28.726Z,5840
2018-08-17T13:08:38.832Z,5828
2018-08-17T13:09:48.911Z,5812
2018-08-17T13:10:59.485Z,5796
2018-08-17T13:12:09.322Z,5744
2018-08-17T13:13:19.430Z,5748
2018-08-17T13:14:29.267Z,5752
2018-08-17T13:15:39.371Z,5692
2018-08-17T13:16:49.459Z,5732
2018-08-17T13:17:59.530Z,5744
2018-08-17T13:19:09.641Z,5712
2018-08-17T13:20:19.764Z,5736
2018-08-17T13:21:29.938Z,5760
2018-08-17T13:22:40.046Z,5748
2018-08-17T13:23:50.195Z,5700
2018-08-17T13:25:00.378Z,5708
2018-08-17T13:26:10.468Z,5692
2018-08-17T13:27:20.552Z,5664
2018-08-17T13:28:30.378Z,5660
2018-08-17T13:29:40.489Z,5632
2018-08-17T13:30:50.663Z,5612
2018-08-17T13:32:00.836Z,5608
2018-08-17T13:33:10.676Z,5588
2018-08-17T13:34:20.813Z,5568
2018-08-17T13:35:30.478Z,5556
2018-08-17T13:36:40.578Z,5560
2018-08-17T13:37:50.888Z,5568
2018-08-17T13:39:00.747Z,5544
2018-08-17T13:40:11.055Z,5544
2018-08-17T13:41:21.203Z,5564
2018-08-17T13:42:31.405Z,5564
2018-08-17T13:43:41.550Z,5548
2018-08-17T13:44:51.663Z,5480
2018-08-17T13:46:01.788Z,5440
2018-08-17T13:47:11.939Z,5432
2018-08-17T13:48:22.061Z,5392
2018-08-17T13:49:32.148Z,5368
2018-08-17T13:50:42.251Z,5360
2018-08-17T13:51:52.359Z,5364
2018-08-17T13:53:02.507Z,5364
2018-08-17T13:54:12.596Z,5336
2018-08-17T13:55:22.868Z,5320
2018-08-17T13:56:33.141Z,5292
2018-08-17T13:57:43.251Z,5240
2018-08-17T13:58:53.364Z,5220
2018-08-17T14:00:03.493Z,5220
2018-08-17T14:01:13.597Z,5216
2018-08-17T14:02:24.043Z,5172
2018-08-17T14:03:33.865Z,5164
2018-08-17T14:04:43.995Z,5132
2018-08-17T14:05:54.088Z,5108
2018-08-17T14:07:04.192Z,5108
2018-08-17T14:08:14.465Z,5108
2018-08-17T14:09:24.639Z,5080
2018-08-17T14:10:34.520Z,5064
2018-08-17T14:11:44.351Z,5044
2018-08-17T14:12:54.185Z,5024
2018-08-17T14:14:04.304Z,5012
2018-08-17T14:15:14.392Z,5036
2018-08-17T14:16:24.545Z,5044
2018-08-17T14:17:34.658Z,5032
2018-08-17T14:18:44.745Z,5016
2018-08-17T14:19:54.844Z,4964
2018-08-17T14:21:04.673Z,4948
2018-08-17T14:22:14.911Z,4940
2018-08-17T14:23:24.823Z,4932
2018-08-17T14:24:34.892Z,4912
2018-08-17T14:25:45.012Z,4888
2018-08-17T14:26:54.867Z,4868
2018-08-17T14:28:04.948Z,4844
2018-08-17T14:29:15.041Z,4844
2018-08-17T14:30:25.160Z,4796
2018-08-17T14:31:34.992Z,4772
2018-08-17T14:32:45.095Z,4740
2018-08-17T14:33:55.192Z,4724
2018-08-17T14:35:05.542Z,4712
2018-08-17T14:36:15.719Z,4700
2018-08-17T14:37:25.801Z,4656
2018-08-17T14:38:35.069Z,4588
2018-08-17T14:39:44.924Z,4616
2018-08-17T14:40:56.195Z,4592
2018-08-17T14:42:06.300Z,4576
2018-08-17T14:43:16.636Z,4584
2018-08-17T14:44:27.905Z,4596
2018-08-17T14:45:37.733Z,4584
2018-08-17T14:46:47.756Z,4560
2018-08-17T14:47:57.526Z,4532
2018-08-17T14:49:08.127Z,4524
2018-08-17T14:50:18.185Z,4516
2018-08-17T14:51:28.275Z,4504
2018-08-17T14:52:38.302Z,4496
2018-08-17T14:53:48.381Z,4460
2018-08-17T14:54:58.415Z,4404
2018-08-17T14:56:08.482Z,4388
2018-08-17T14:57:18.495Z,4340
2018-08-17T14:58:28.533Z,4308
2018-08-17T14:59:38.295Z,4284
2018-08-17T15:00:48.142Z,4280
2018-08-17T15:01:57.909Z,4280
2018-08-17T15:03:08.901Z,4236
2018-08-17T15:04:18.949Z,4188
2018-08-17T15:05:28.974Z,4204
2018-08-17T15:06:39.048Z,4180
2018-08-17T15:07:49.469Z,4160
2018-08-17T15:08:59.383Z,4160
2018-08-17T15:10:09.162Z,4164
2018-08-17T15:11:19.196Z,4112
2018-08-17T15:12:28.993Z,4108
2018-08-17T15:13:39.185Z,4064
2018-08-17T15:14:49.601Z,4052
2018-08-17T15:15:59.646Z,4024
2018-08-17T15:17:09.675Z,4016
2018-08-17T15:18:19.697Z,4012
2018-08-17T15:19:29.518Z,4000
2018-08-17T15:20:39.569Z,3992
2018-08-17T15:21:49.607Z,3972
2018-08-17T15:22:59.860Z,3940
2018-08-17T15:24:09.639Z,3916
2018-08-17T15:25:19.404Z,3876
2018-08-17T15:26:29.344Z,3844
2018-08-17T15:27:39.149Z,3816
2018-08-17T15:28:49.570Z,3796
2018-08-17T15:29:59.594Z,3784
2018-08-17T15:31:09.635Z,3744
2018-08-17T15:32:19.655Z,3704
2018-08-17T15:33:29.702Z,3684
2018-08-17T15:34:39.731Z,3672
2018-08-17T15:35:49.524Z,3668
2018-08-17T15:36:59.033Z,3652
2018-08-17T15:38:08.856Z,3620
2018-08-17T15:39:18.652Z,3576
2018-08-17T15:40:28.688Z,3524
2018-08-17T15:41:38.667Z,3488
2018-08-17T15:42:48.727Z,3464
2018-08-17T15:43:58.810Z,3440
2018-08-17T15:45:08.600Z,3432
2018-08-17T15:46:18.653Z,3420
2018-08-17T15:47:28.728Z,3372
2018-08-17T15:48:38.513Z,3360
2018-08-17T15:49:48.580Z,3336
2018-08-17T15:50:58.108Z,3304
2018-08-17T15:52:08.513Z,3268
2018-08-17T15:53:18.697Z,3252
2018-08-17T15:54:28.732Z,3224
2018-08-17T15:55:38.287Z,3168
2018-08-17T15:56:48.315Z,3148
2018-08-17T15:57:58.241Z,3124
2018-08-17T15:59:08.475Z,3116
2018-08-17T16:00:18.460Z,3112
2018-08-17T16:01:29.003Z,3096
2018-08-17T16:02:39.291Z,3092
2018-08-17T16:03:49.854Z,3064
2018-08-17T16:05:01.104Z,3060
2018-08-17T16:06:11.684Z,3028
2018-08-17T16:07:22.281Z,3012
2018-08-17T16:08:32.453Z,3012
2018-08-17T16:09:42.594Z,3004
2018-08-17T16:10:52.612Z,2988
2018-08-17T16:12:03.291Z,2968
2018-08-17T16:13:13.136Z,2940
2018-08-17T16:14:23.181Z,2916
2018-08-17T16:15:33.200Z,2892
2018-08-17T16:16:43.256Z,2864
2018-08-17T16:17:53.305Z,2836
2018-08-17T16:19:04.344Z,2792
2018-08-17T16:20:14.386Z,2768
2018-08-17T16:21:24.425Z,2748
2018-08-17T16:22:34.478Z,2736
2018-08-17T16:23:44.530Z,2716
2018-08-17T16:24:54.897Z,2692